sensor_id;sensor_type;location;lat;lon;timestamp;P1;P2;P0
54869;PMS5003;40756;-37.950;145.008;2023-08-17T00:00:43;5;5;
54869;PMS5003;40756;-37.950;145.008;2023-08-17T00:03:13;6;6;
54869;PMS5003;40756;-37.950;145.008;2023-08-17T00:05:43;7;6;
54869;PMS5003;40756;-37.950;145.008;2023-08-17T00:08:12;9;8;
54869;PMS5003;40756;-37.950;145.008;2023-08-17T00:10:42;9;8;
54869;PMS5003;40756;-37.950;145.008;2023-08-17T00:13:12;7;7;
54869;PMS5003;40756;-37.950;145.008;2023-08-17T00:15:42;9;9;
54869;PMS5003;40756;-37.950;145.008;2023-08-17T00:18:11;7;6;
54869;PMS5003;40756;-37.950;145.008;2023-08-17T00:20:41;12;10;
54869;PMS5003;40756;-37.950;145.008;2023-08-17T00:23:11;9;9;
54869;PMS5003;40756;-37.950;145.008;2023-08-17T00:25:41;10;10;
54869;PMS5003;40756;-37.950;145.008;2023-08-17T00:28:11;9;9;
54869;PMS5003;40756;-37.950;145.008;2023-08-17T00:30:40;11;10;
54869;PMS5003;40756;-37.950;145.008;2023-08-17T00:33:10;7;7;
54869;PMS5003;40756;-37.950;145.008;2023-08-17T00:35:40;7;7;
54869;PMS5003;40756;-37.950;145.008;2023-08-17T00:38:09;6;6;
54869;PMS5003;40756;-37.950;145.008;2023-08-17T00:40:39;7;7;
54869;PMS5003;40756;-37.950;145.008;2023-08-17T00:43:09;5;5;
54869;PMS5003;40756;-37.950;145.008;2023-08-17T00:45:39;6;4;
54869;PMS5003;40756;-37.950;145.008;2023-08-17T00:48:08;7;7;
54869;PMS5003;40756;-37.950;145.008;2023-08-17T00:50:38;7;6;
54869;PMS5003;40756;-37.950;145.008;2023-08-17T00:53:09;6;6;
54869;PMS5003;40756;-37.950;145.008;2023-08-17T00:55:39;7;6;
54869;PMS5003;40756;-37.950;145.008;2023-08-17T00:58:09;5;5;
54869;PMS5003;40756;-37.950;145.008;2023-08-17T01:00:39;3;3;
54869;PMS5003;40756;-37.950;145.008;2023-08-17T01:03:08;9;8;
54869;PMS5003;40756;-37.950;145.008;2023-08-17T01:05:38;6;5;
54869;PMS5003;40756;-37.950;145.008;2023-08-17T01:08:07;8;7;
54869;PMS5003;40756;-37.950;145.008;2023-08-17T01:10:41;9;8;
54869;PMS5003;40756;-37.950;145.008;2023-08-17T01:13:20;5;5;
54869;PMS5003;40756;-37.950;145.008;2023-08-17T01:15:54;6;5;
54869;PMS5003;40756;-37.950;145.008;2023-08-17T01:18:26;5;5;
54869;PMS5003;40756;-37.950;145.008;2023-08-17T01:21:01;4;4;
54869;PMS5003;40756;-37.950;145.008;2023-08-17T01:23:33;6;6;
54869;PMS5003;40756;-37.950;145.008;2023-08-17T01:26:03;5;5;
54869;PMS5003;40756;-37.950;145.008;2023-08-17T01:28:32;5;4;
54869;PMS5003;40756;-37.950;145.008;2023-08-17T01:31:03;5;5;
54869;PMS5003;40756;-37.950;145.008;2023-08-17T01:33:39;3;3;
54869;PMS5003;40756;-37.950;145.008;2023-08-17T01:36:18;3;3;
54869;PMS5003;40756;-37.950;145.008;2023-08-17T01:38:53;6;5;
54869;PMS5003;40756;-37.950;145.008;2023-08-17T01:41:25;4;3;
54869;PMS5003;40756;-37.950;145.008;2023-08-17T01:43:56;4;4;
54869;PMS5003;40756;-37.950;145.008;2023-08-17T01:46:29;6;6;
54869;PMS5003;40756;-37.950;145.008;2023-08-17T01:49:00;3;3;
54869;PMS5003;40756;-37.950;145.008;2023-08-17T01:51:30;6;6;
54869;PMS5003;40756;-37.950;145.008;2023-08-17T01:53:59;3;3;
54869;PMS5003;40756;-37.950;145.008;2023-08-17T01:56:30;5;5;
54869;PMS5003;40756;-37.950;145.008;2023-08-17T01:59:00;5;5;
54869;PMS5003;40756;-37.950;145.008;2023-08-17T02:01:29;5;5;
54869;PMS5003;40756;-37.950;145.008;2023-08-17T02:03:59;5;5;
54869;PMS5003;40756;-37.950;145.008;2023-08-17T02:06:28;5;4;
54869;PMS5003;40756;-37.950;145.008;2023-08-17T02:08:58;4;4;
54869;PMS5003;40756;-37.950;145.008;2023-08-17T02:11:28;5;4;
54869;PMS5003;40756;-37.950;145.008;2023-08-17T02:13:57;3;3;
54869;PMS5003;40756;-37.950;145.008;2023-08-17T02:16:27;3;3;
54869;PMS5003;40756;-37.950;145.008;2023-08-17T02:18:56;4;4;
54869;PMS5003;40756;-37.950;145.008;2023-08-17T02:21:26;4;4;
54869;PMS5003;40756;-37.950;145.008;2023-08-17T02:23:56;3;3;
54869;PMS5003;40756;-37.950;145.008;2023-08-17T02:26:25;4;4;
54869;PMS5003;40756;-37.950;145.008;2023-08-17T02:28:55;4;4;
54869;PMS5003;40756;-37.950;145.008;2023-08-17T02:31:25;4;4;
54869;PMS5003;40756;-37.950;145.008;2023-08-17T02:33:54;3;3;
54869;PMS5003;40756;-37.950;145.008;2023-08-17T02:36:24;4;3;
54869;PMS5003;40756;-37.950;145.008;2023-08-17T02:38:54;3;3;
54869;PMS5003;40756;-37.950;145.008;2023-08-17T02:41:23;4;4;
54869;PMS5003;40756;-37.950;145.008;2023-08-17T02:43:53;4;4;
54869;PMS5003;40756;-37.950;145.008;2023-08-17T02:46:23;4;4;
54869;PMS5003;40756;-37.950;145.008;2023-08-17T02:48:52;4;4;
54869;PMS5003;40756;-37.950;145.008;2023-08-17T02:51:22;5;5;
54869;PMS5003;40756;-37.950;145.008;2023-08-17T02:53:51;5;4;
54869;PMS5003;40756;-37.950;145.008;2023-08-17T02:56:21;5;4;
54869;PMS5003;40756;-37.950;145.008;2023-08-17T02:58:51;4;4;
54869;PMS5003;40756;-37.950;145.008;2023-08-17T03:01:21;4;3;
54869;PMS5003;40756;-37.950;145.008;2023-08-17T03:03:51;4;4;
54869;PMS5003;40756;-37.950;145.008;2023-08-17T03:06:21;5;4;
54869;PMS5003;40756;-37.950;145.008;2023-08-17T03:08:50;5;5;
54869;PMS5003;40756;-37.950;145.008;2023-08-17T03:11:20;5;4;
54869;PMS5003;40756;-37.950;145.008;2023-08-17T03:13:50;5;5;
54869;PMS5003;40756;-37.950;145.008;2023-08-17T03:16:19;6;5;
54869;PMS5003;40756;-37.950;145.008;2023-08-17T03:18:49;4;4;
54869;PMS5003;40756;-37.950;145.008;2023-08-17T03:21:19;5;5;
54869;PMS5003;40756;-37.950;145.008;2023-08-17T03:23:48;5;5;
54869;PMS5003;40756;-37.950;145.008;2023-08-17T03:26:18;6;6;
54869;PMS5003;40756;-37.950;145.008;2023-08-17T03:28:47;6;5;
54869;PMS5003;40756;-37.950;145.008;2023-08-17T03:31:17;7;6;
54869;PMS5003;40756;-37.950;145.008;2023-08-17T03:33:48;6;6;
54869;PMS5003;40756;-37.950;145.008;2023-08-17T03:36:17;6;6;
54869;PMS5003;40756;-37.950;145.008;2023-08-17T03:38:47;6;6;
54869;PMS5003;40756;-37.950;145.008;2023-08-17T03:41:17;6;6;
54869;PMS5003;40756;-37.950;145.008;2023-08-17T03:43:46;7;7;
54869;PMS5003;40756;-37.950;145.008;2023-08-17T03:46:16;8;8;
54869;PMS5003;40756;-37.950;145.008;2023-08-17T03:48:51;8;7;
54869;PMS5003;40756;-37.950;145.008;2023-08-17T03:51:21;9;8;
54869;PMS5003;40756;-37.950;145.008;2023-08-17T03:53:50;11;10;
54869;PMS5003;40756;-37.950;145.008;2023-08-17T03:56:20;8;8;
54869;PMS5003;40756;-37.950;145.008;2023-08-17T03:58:49;7;6;
54869;PMS5003;40756;-37.950;145.008;2023-08-17T04:01:21;7;6;
54869;PMS5003;40756;-37.950;145.008;2023-08-17T04:03:50;5;5;
54869;PMS5003;40756;-37.950;145.008;2023-08-17T04:06:20;9;8;
54869;PMS5003;40756;-37.950;145.008;2023-08-17T04:08:50;5;5;
54869;PMS5003;40756;-37.950;145.008;2023-08-17T04:11:19;8;6;
54869;PMS5003;40756;-37.950;145.008;2023-08-17T04:13:49;7;7;
54869;PMS5003;40756;-37.950;145.008;2023-08-17T04:16:19;8;6;
54869;PMS5003;40756;-37.950;145.008;2023-08-17T04:18:49;5;5;
54869;PMS5003;40756;-37.950;145.008;2023-08-17T04:21:18;6;5;
54869;PMS5003;40756;-37.950;145.008;2023-08-17T04:23:48;6;6;
54869;PMS5003;40756;-37.950;145.008;2023-08-17T04:26:18;6;4;
54869;PMS5003;40756;-37.950;145.008;2023-08-17T04:28:47;6;6;
54869;PMS5003;40756;-37.950;145.008;2023-08-17T04:31:17;8;8;
54869;PMS5003;40756;-37.950;145.008;2023-08-17T04:33:46;5;5;
54869;PMS5003;40756;-37.950;145.008;2023-08-17T04:36:16;5;4;
54869;PMS5003;40756;-37.950;145.008;2023-08-17T04:38:46;5;4;
54869;PMS5003;40756;-37.950;145.008;2023-08-17T04:41:16;3;3;
54869;PMS5003;40756;-37.950;145.008;2023-08-17T04:43:45;5;5;
54869;PMS5003;40756;-37.950;145.008;2023-08-17T04:46:15;4;4;
54869;PMS5003;40756;-37.950;145.008;2023-08-17T04:48:45;2;2;
54869;PMS5003;40756;-37.950;145.008;2023-08-17T04:51:14;4;4;
54869;PMS5003;40756;-37.950;145.008;2023-08-17T04:53:44;3;2;
54869;PMS5003;40756;-37.950;145.008;2023-08-17T04:56:14;2;2;
54869;PMS5003;40756;-37.950;145.008;2023-08-17T04:58:44;5;5;
54869;PMS5003;40756;-37.950;145.008;2023-08-17T05:01:14;5;4;
54869;PMS5003;40756;-37.950;145.008;2023-08-17T05:03:43;6;6;
54869;PMS5003;40756;-37.950;145.008;2023-08-17T05:06:13;5;5;
54869;PMS5003;40756;-37.950;145.008;2023-08-17T05:08:42;3;3;
54869;PMS5003;40756;-37.950;145.008;2023-08-17T05:11:12;4;4;
54869;PMS5003;40756;-37.950;145.008;2023-08-17T05:13:42;6;6;
54869;PMS5003;40756;-37.950;145.008;2023-08-17T05:16:11;6;6;
54869;PMS5003;40756;-37.950;145.008;2023-08-17T05:18:41;5;4;
54869;PMS5003;40756;-37.950;145.008;2023-08-17T05:21:11;3;3;
54869;PMS5003;40756;-37.950;145.008;2023-08-17T05:23:40;6;5;
54869;PMS5003;40756;-37.950;145.008;2023-08-17T05:26:10;5;5;
54869;PMS5003;40756;-37.950;145.008;2023-08-17T05:28:40;3;3;
54869;PMS5003;40756;-37.950;145.008;2023-08-17T05:31:09;9;8;
54869;PMS5003;40756;-37.950;145.008;2023-08-17T05:33:39;5;5;
54869;PMS5003;40756;-37.950;145.008;2023-08-17T05:36:09;5;5;
54869;PMS5003;40756;-37.950;145.008;2023-08-17T05:38:39;5;5;
54869;PMS5003;40756;-37.950;145.008;2023-08-17T05:41:08;4;4;
54869;PMS5003;40756;-37.950;145.008;2023-08-17T05:43:38;5;4;
54869;PMS5003;40756;-37.950;145.008;2023-08-17T05:46:08;4;3;
54869;PMS5003;40756;-37.950;145.008;2023-08-17T05:48:38;5;5;
54869;PMS5003;40756;-37.950;145.008;2023-08-17T05:51:07;4;4;
54869;PMS5003;40756;-37.950;145.008;2023-08-17T05:53:37;6;6;
54869;PMS5003;40756;-37.950;145.008;2023-08-17T05:56:07;4;4;
54869;PMS5003;40756;-37.950;145.008;2023-08-17T05:58:36;6;6;
54869;PMS5003;40756;-37.950;145.008;2023-08-17T06:01:06;6;6;
54869;PMS5003;40756;-37.950;145.008;2023-08-17T06:03:37;5;5;
54869;PMS5003;40756;-37.950;145.008;2023-08-17T06:06:06;13;12;
54869;PMS5003;40756;-37.950;145.008;2023-08-17T06:08:36;4;4;
54869;PMS5003;40756;-37.950;145.008;2023-08-17T06:11:06;6;6;
54869;PMS5003;40756;-37.950;145.008;2023-08-17T06:13:36;7;7;
54869;PMS5003;40756;-37.950;145.008;2023-08-17T06:16:05;7;6;
54869;PMS5003;40756;-37.950;145.008;2023-08-17T06:18:35;10;10;
54869;PMS5003;40756;-37.950;145.008;2023-08-17T06:21:06;10;10;
54869;PMS5003;40756;-37.950;145.008;2023-08-17T06:23:35;16;16;
54869;PMS5003;40756;-37.950;145.008;2023-08-17T06:26:05;45;45;
54869;PMS5003;40756;-37.950;145.008;2023-08-17T06:28:35;45;44;
54869;PMS5003;40756;-37.950;145.008;2023-08-17T06:31:06;17;17;
54869;PMS5003;40756;-37.950;145.008;2023-08-17T06:33:41;9;9;
54869;PMS5003;40756;-37.950;145.008;2023-08-17T06:36:13;7;7;
54869;PMS5003;40756;-37.950;145.008;2023-08-17T06:38:44;6;6;
54869;PMS5003;40756;-37.950;145.008;2023-08-17T06:41:15;5;5;
54869;PMS5003;40756;-37.950;145.008;2023-08-17T06:43:44;8;8;
54869;PMS5003;40756;-37.950;145.008;2023-08-17T06:46:14;5;5;
54869;PMS5003;40756;-37.950;145.008;2023-08-17T06:48:44;11;9;
54869;PMS5003;40756;-37.950;145.008;2023-08-17T06:51:14;25;25;
54869;PMS5003;40756;-37.950;145.008;2023-08-17T06:53:43;38;37;
54869;PMS5003;40756;-37.950;145.008;2023-08-17T06:56:12;78;77;
54869;PMS5003;40756;-37.950;145.008;2023-08-17T06:58:42;78;78;
54869;PMS5003;40756;-37.950;145.008;2023-08-17T07:01:11;21;20;
54869;PMS5003;40756;-37.950;145.008;2023-08-17T07:03:42;59;59;
54869;PMS5003;40756;-37.950;145.008;2023-08-17T07:06:11;44;44;
54869;PMS5003;40756;-37.950;145.008;2023-08-17T07:08:41;9;9;
54869;PMS5003;40756;-37.950;145.008;2023-08-17T07:11:11;6;6;
54869;PMS5003;40756;-37.950;145.008;2023-08-17T07:13:40;7;7;
54869;PMS5003;40756;-37.950;145.008;2023-08-17T07:16:10;8;8;
54869;PMS5003;40756;-37.950;145.008;2023-08-17T07:18:40;8;8;
54869;PMS5003;40756;-37.950;145.008;2023-08-17T07:21:11;7;6;
54869;PMS5003;40756;-37.950;145.008;2023-08-17T07:23:44;8;8;
54869;PMS5003;40756;-37.950;145.008;2023-08-17T07:26:13;6;6;
54869;PMS5003;40756;-37.950;145.008;2023-08-17T07:28:43;7;7;
54869;PMS5003;40756;-37.950;145.008;2023-08-17T07:31:13;8;8;
54869;PMS5003;40756;-37.950;145.008;2023-08-17T07:33:43;9;8;
54869;PMS5003;40756;-37.950;145.008;2023-08-17T07:36:12;8;8;
54869;PMS5003;40756;-37.950;145.008;2023-08-17T07:38:42;9;8;
54869;PMS5003;40756;-37.950;145.008;2023-08-17T07:41:12;6;6;
54869;PMS5003;40756;-37.950;145.008;2023-08-17T07:43:42;11;10;
54869;PMS5003;40756;-37.950;145.008;2023-08-17T07:46:11;8;7;
54869;PMS5003;40756;-37.950;145.008;2023-08-17T07:48:41;9;9;
54869;PMS5003;40756;-37.950;145.008;2023-08-17T07:51:11;8;8;
54869;PMS5003;40756;-37.950;145.008;2023-08-17T07:53:41;11;10;
54869;PMS5003;40756;-37.950;145.008;2023-08-17T07:56:10;12;10;
54869;PMS5003;40756;-37.950;145.008;2023-08-17T07:58:40;9;9;
54869;PMS5003;40756;-37.950;145.008;2023-08-17T08:01:10;11;10;
54869;PMS5003;40756;-37.950;145.008;2023-08-17T08:03:40;11;10;
54869;PMS5003;40756;-37.950;145.008;2023-08-17T08:06:10;10;9;
54869;PMS5003;40756;-37.950;145.008;2023-08-17T08:08:40;10;10;
54869;PMS5003;40756;-37.950;145.008;2023-08-17T08:11:10;11;10;
54869;PMS5003;40756;-37.950;145.008;2023-08-17T08:13:39;11;11;
54869;PMS5003;40756;-37.950;145.008;2023-08-17T08:16:08;12;12;
54869;PMS5003;40756;-37.950;145.008;2023-08-17T08:18:38;8;8;
54869;PMS5003;40756;-37.950;145.008;2023-08-17T08:21:08;10;10;
54869;PMS5003;40756;-37.950;145.008;2023-08-17T08:23:37;13;13;
54869;PMS5003;40756;-37.950;145.008;2023-08-17T08:26:07;14;13;
54869;PMS5003;40756;-37.950;145.008;2023-08-17T08:28:36;21;18;
54869;PMS5003;40756;-37.950;145.008;2023-08-17T08:31:06;14;14;
54869;PMS5003;40756;-37.950;145.008;2023-08-17T08:33:36;21;21;
54869;PMS5003;40756;-37.950;145.008;2023-08-17T08:36:06;37;36;
54869;PMS5003;40756;-37.950;145.008;2023-08-17T08:38:35;26;26;
54869;PMS5003;40756;-37.950;145.008;2023-08-17T08:41:05;63;63;
54869;PMS5003;40756;-37.950;145.008;2023-08-17T08:43:35;13;12;
54869;PMS5003;40756;-37.950;145.008;2023-08-17T08:46:05;10;9;
54869;PMS5003;40756;-37.950;145.008;2023-08-17T08:48:35;12;11;
54869;PMS5003;40756;-37.950;145.008;2023-08-17T08:51:07;11;11;
54869;PMS5003;40756;-37.950;145.008;2023-08-17T08:53:42;9;9;
54869;PMS5003;40756;-37.950;145.008;2023-08-17T08:56:15;10;10;
54869;PMS5003;40756;-37.950;145.008;2023-08-17T08:58:51;11;11;
54869;PMS5003;40756;-37.950;145.008;2023-08-17T09:01:21;9;9;
54869;PMS5003;40756;-37.950;145.008;2023-08-17T09:03:53;10;10;
54869;PMS5003;40756;-37.950;145.008;2023-08-17T09:06:24;12;12;
54869;PMS5003;40756;-37.950;145.008;2023-08-17T09:08:56;12;11;
54869;PMS5003;40756;-37.950;145.008;2023-08-17T09:11:28;14;14;
54869;PMS5003;40756;-37.950;145.008;2023-08-17T09:13:58;10;10;
54869;PMS5003;40756;-37.950;145.008;2023-08-17T09:16:28;11;9;
54869;PMS5003;40756;-37.950;145.008;2023-08-17T09:18:57;11;11;
54869;PMS5003;40756;-37.950;145.008;2023-08-17T09:21:30;14;13;
54869;PMS5003;40756;-37.950;145.008;2023-08-17T09:24:00;11;11;
54869;PMS5003;40756;-37.950;145.008;2023-08-17T09:26:31;12;12;
54869;PMS5003;40756;-37.950;145.008;2023-08-17T09:29:00;12;12;
54869;PMS5003;40756;-37.950;145.008;2023-08-17T09:31:43;14;13;
54869;PMS5003;40756;-37.950;145.008;2023-08-17T09:34:13;11;10;
54869;PMS5003;40756;-37.950;145.008;2023-08-17T09:36:46;13;13;
54869;PMS5003;40756;-37.950;145.008;2023-08-17T09:39:16;22;22;
54869;PMS5003;40756;-37.950;145.008;2023-08-17T09:41:45;53;52;
54869;PMS5003;40756;-37.950;145.008;2023-08-17T09:44:14;32;32;
54869;PMS5003;40756;-37.950;145.008;2023-08-17T09:46:44;24;24;
54869;PMS5003;40756;-37.950;145.008;2023-08-17T09:49:13;21;20;
54869;PMS5003;40756;-37.950;145.008;2023-08-17T09:51:44;10;10;
54869;PMS5003;40756;-37.950;145.008;2023-08-17T09:54:21;11;11;
54869;PMS5003;40756;-37.950;145.008;2023-08-17T09:56:52;15;15;
54869;PMS5003;40756;-37.950;145.008;2023-08-17T09:59:22;14;13;
54869;PMS5003;40756;-37.950;145.008;2023-08-17T10:01:52;15;13;
54869;PMS5003;40756;-37.950;145.008;2023-08-17T10:04:23;14;14;
54869;PMS5003;40756;-37.950;145.008;2023-08-17T10:06:56;13;13;
54869;PMS5003;40756;-37.950;145.008;2023-08-17T10:09:30;13;13;
54869;PMS5003;40756;-37.950;145.008;2023-08-17T10:12:06;14;14;
54869;PMS5003;40756;-37.950;145.008;2023-08-17T10:14:45;15;14;
54869;PMS5003;40756;-37.950;145.008;2023-08-17T10:17:19;14;14;
54869;PMS5003;40756;-37.950;145.008;2023-08-17T10:19:54;17;16;
54869;PMS5003;40756;-37.950;145.008;2023-08-17T10:22:27;16;14;
54869;PMS5003;40756;-37.950;145.008;2023-08-17T10:25:01;15;15;
54869;PMS5003;40756;-37.950;145.008;2023-08-17T10:27:33;15;14;
54869;PMS5003;40756;-37.950;145.008;2023-08-17T10:30:04;16;15;
54869;PMS5003;40756;-37.950;145.008;2023-08-17T10:32:35;14;12;
54869;PMS5003;40756;-37.950;145.008;2023-08-17T10:35:05;14;13;
54869;PMS5003;40756;-37.950;145.008;2023-08-17T10:37:35;14;14;
54869;PMS5003;40756;-37.950;145.008;2023-08-17T10:40:06;12;11;
54869;PMS5003;40756;-37.950;145.008;2023-08-17T10:42:37;15;15;
54869;PMS5003;40756;-37.950;145.008;2023-08-17T10:45:38;13;12;
54869;PMS5003;40756;-37.950;145.008;2023-08-17T10:48:40;12;11;
54869;PMS5003;40756;-37.950;145.008;2023-08-17T10:51:13;12;9;
54869;PMS5003;40756;-37.950;145.008;2023-08-17T10:53:43;12;10;
54869;PMS5003;40756;-37.950;145.008;2023-08-17T10:56:13;13;12;
54869;PMS5003;40756;-37.950;145.008;2023-08-17T10:58:44;12;11;
54869;PMS5003;40756;-37.950;145.008;2023-08-17T11:01:14;10;10;
54869;PMS5003;40756;-37.950;145.008;2023-08-17T11:04:16;13;12;
54869;PMS5003;40756;-37.950;145.008;2023-08-17T11:06:49;9;9;
54869;PMS5003;40756;-37.950;145.008;2023-08-17T11:09:30;10;9;
54869;PMS5003;40756;-37.950;145.008;2023-08-17T11:12:02;11;9;
54869;PMS5003;40756;-37.950;145.008;2023-08-17T11:14:33;9;8;
54869;PMS5003;40756;-37.950;145.008;2023-08-17T11:17:03;12;11;
54869;PMS5003;40756;-37.950;145.008;2023-08-17T11:19:33;8;8;
54869;PMS5003;40756;-37.950;145.008;2023-08-17T11:22:07;8;8;
54869;PMS5003;40756;-37.950;145.008;2023-08-17T11:24:38;9;9;
54869;PMS5003;40756;-37.950;145.008;2023-08-17T11:27:07;13;13;
54869;PMS5003;40756;-37.950;145.008;2023-08-17T11:29:37;14;14;
54869;PMS5003;40756;-37.950;145.008;2023-08-17T11:32:08;10;10;
54869;PMS5003;40756;-37.950;145.008;2023-08-17T11:34:38;11;11;
54869;PMS5003;40756;-37.950;145.008;2023-08-17T11:37:07;11;9;
54869;PMS5003;40756;-37.950;145.008;2023-08-17T11:39:38;12;11;
54869;PMS5003;40756;-37.950;145.008;2023-08-17T11:42:08;19;17;
54869;PMS5003;40756;-37.950;145.008;2023-08-17T11:44:38;13;13;
54869;PMS5003;40756;-37.950;145.008;2023-08-17T11:47:08;9;8;
54869;PMS5003;40756;-37.950;145.008;2023-08-17T11:49:37;13;12;
54869;PMS5003;40756;-37.950;145.008;2023-08-17T11:52:09;9;9;
54869;PMS5003;40756;-37.950;145.008;2023-08-17T11:54:40;10;9;
54869;PMS5003;40756;-37.950;145.008;2023-08-17T11:57:10;7;7;
54869;PMS5003;40756;-37.950;145.008;2023-08-17T11:59:39;9;9;
54869;PMS5003;40756;-37.950;145.008;2023-08-17T12:02:09;8;8;
54869;PMS5003;40756;-37.950;145.008;2023-08-17T12:04:40;13;13;
54869;PMS5003;40756;-37.950;145.008;2023-08-17T12:07:12;8;8;
54869;PMS5003;40756;-37.950;145.008;2023-08-17T12:09:42;10;9;
54869;PMS5003;40756;-37.950;145.008;2023-08-17T12:12:11;10;10;
54869;PMS5003;40756;-37.950;145.008;2023-08-17T12:14:45;15;14;
54869;PMS5003;40756;-37.950;145.008;2023-08-17T12:17:15;12;11;
54869;PMS5003;40756;-37.950;145.008;2023-08-17T12:19:49;12;11;
54869;PMS5003;40756;-37.950;145.008;2023-08-17T12:22:24;11;11;
54869;PMS5003;40756;-37.950;145.008;2023-08-17T12:24:54;12;11;
54869;PMS5003;40756;-37.950;145.008;2023-08-17T12:27:24;15;14;
54869;PMS5003;40756;-37.950;145.008;2023-08-17T12:29:54;13;13;
54869;PMS5003;40756;-37.950;145.008;2023-08-17T12:32:23;13;12;
54869;PMS5003;40756;-37.950;145.008;2023-08-17T12:34:52;15;14;
54869;PMS5003;40756;-37.950;145.008;2023-08-17T12:37:22;10;10;
54869;PMS5003;40756;-37.950;145.008;2023-08-17T12:39:52;17;14;
54869;PMS5003;40756;-37.950;145.008;2023-08-17T12:42:22;16;15;
54869;PMS5003;40756;-37.950;145.008;2023-08-17T12:44:52;14;14;
54869;PMS5003;40756;-37.950;145.008;2023-08-17T12:47:22;18;17;
54869;PMS5003;40756;-37.950;145.008;2023-08-17T12:49:52;25;24;
54869;PMS5003;40756;-37.950;145.008;2023-08-17T12:52:21;18;18;
54869;PMS5003;40756;-37.950;145.008;2023-08-17T12:54:51;22;20;
54869;PMS5003;40756;-37.950;145.008;2023-08-17T12:57:21;23;23;
54869;PMS5003;40756;-37.950;145.008;2023-08-17T12:59:50;24;23;
54869;PMS5003;40756;-37.950;145.008;2023-08-17T13:02:20;36;35;
54869;PMS5003;40756;-37.950;145.008;2023-08-17T13:04:50;17;16;
54869;PMS5003;40756;-37.950;145.008;2023-08-17T13:07:20;19;19;
54869;PMS5003;40756;-37.950;145.008;2023-08-17T13:09:49;34;33;
54869;PMS5003;40756;-37.950;145.008;2023-08-17T13:12:19;64;63;
54869;PMS5003;40756;-37.950;145.008;2023-08-17T13:14:48;72;72;
54869;PMS5003;40756;-37.950;145.008;2023-08-17T13:17:18;28;27;
54869;PMS5003;40756;-37.950;145.008;2023-08-17T13:19:47;30;28;
54869;PMS5003;40756;-37.950;145.008;2023-08-17T13:22:17;16;16;
54869;PMS5003;40756;-37.950;145.008;2023-08-17T13:24:46;8;8;
54869;PMS5003;40756;-37.950;145.008;2023-08-17T13:27:16;12;11;
54869;PMS5003;40756;-37.950;145.008;2023-08-17T13:29:46;9;9;
54869;PMS5003;40756;-37.950;145.008;2023-08-17T13:32:15;11;11;
54869;PMS5003;40756;-37.950;145.008;2023-08-17T13:34:45;11;10;
54869;PMS5003;40756;-37.950;145.008;2023-08-17T13:37:15;10;10;
54869;PMS5003;40756;-37.950;145.008;2023-08-17T13:39:45;11;10;
54869;PMS5003;40756;-37.950;145.008;2023-08-17T13:42:15;10;10;
54869;PMS5003;40756;-37.950;145.008;2023-08-17T13:44:45;11;11;
54869;PMS5003;40756;-37.950;145.008;2023-08-17T13:47:14;10;10;
54869;PMS5003;40756;-37.950;145.008;2023-08-17T13:49:44;11;11;
54869;PMS5003;40756;-37.950;145.008;2023-08-17T13:52:13;13;12;
54869;PMS5003;40756;-37.950;145.008;2023-08-17T13:54:43;13;13;
54869;PMS5003;40756;-37.950;145.008;2023-08-17T13:57:13;17;16;
54869;PMS5003;40756;-37.950;145.008;2023-08-17T13:59:42;17;16;
54869;PMS5003;40756;-37.950;145.008;2023-08-17T14:02:12;19;17;
54869;PMS5003;40756;-37.950;145.008;2023-08-17T14:04:42;17;16;
54869;PMS5003;40756;-37.950;145.008;2023-08-17T14:07:12;18;17;
54869;PMS5003;40756;-37.950;145.008;2023-08-17T14:09:43;19;19;
54869;PMS5003;40756;-37.950;145.008;2023-08-17T14:12:12;23;21;
54869;PMS5003;40756;-37.950;145.008;2023-08-17T14:14:42;21;21;
54869;PMS5003;40756;-37.950;145.008;2023-08-17T14:17:12;17;17;
54869;PMS5003;40756;-37.950;145.008;2023-08-17T14:19:41;22;19;
54869;PMS5003;40756;-37.950;145.008;2023-08-17T14:22:11;19;19;
54869;PMS5003;40756;-37.950;145.008;2023-08-17T14:24:40;19;18;
54869;PMS5003;40756;-37.950;145.008;2023-08-17T14:27:10;20;19;
54869;PMS5003;40756;-37.950;145.008;2023-08-17T14:29:39;20;19;
54869;PMS5003;40756;-37.950;145.008;2023-08-17T14:32:09;20;20;
54869;PMS5003;40756;-37.950;145.008;2023-08-17T14:34:38;20;20;
54869;PMS5003;40756;-37.950;145.008;2023-08-17T14:37:08;20;19;
54869;PMS5003;40756;-37.950;145.008;2023-08-17T14:39:37;22;21;
54869;PMS5003;40756;-37.950;145.008;2023-08-17T14:42:07;21;18;
54869;PMS5003;40756;-37.950;145.008;2023-08-17T14:44:37;16;16;
54869;PMS5003;40756;-37.950;145.008;2023-08-17T14:47:06;19;18;
54869;PMS5003;40756;-37.950;145.008;2023-08-17T14:49:36;15;15;
54869;PMS5003;40756;-37.950;145.008;2023-08-17T14:52:06;16;16;
54869;PMS5003;40756;-37.950;145.008;2023-08-17T14:54:36;18;17;
54869;PMS5003;40756;-37.950;145.008;2023-08-17T14:57:06;17;17;
54869;PMS5003;40756;-37.950;145.008;2023-08-17T14:59:35;17;17;
54869;PMS5003;40756;-37.950;145.008;2023-08-17T15:02:04;21;20;
54869;PMS5003;40756;-37.950;145.008;2023-08-17T15:04:34;20;19;
54869;PMS5003;40756;-37.950;145.008;2023-08-17T15:07:04;16;16;
54869;PMS5003;40756;-37.950;145.008;2023-08-17T15:09:33;23;21;
54869;PMS5003;40756;-37.950;145.008;2023-08-17T15:12:04;18;17;
54869;PMS5003;40756;-37.950;145.008;2023-08-17T15:14:34;21;20;
54869;PMS5003;40756;-37.950;145.008;2023-08-17T15:17:03;24;20;
54869;PMS5003;40756;-37.950;145.008;2023-08-17T15:19:33;17;16;
54869;PMS5003;40756;-37.950;145.008;2023-08-17T15:22:02;20;19;
54869;PMS5003;40756;-37.950;145.008;2023-08-17T15:24:32;21;18;
54869;PMS5003;40756;-37.950;145.008;2023-08-17T15:27:01;24;23;
54869;PMS5003;40756;-37.950;145.008;2023-08-17T15:29:31;20;19;
54869;PMS5003;40756;-37.950;145.008;2023-08-17T15:32:01;19;18;
54869;PMS5003;40756;-37.950;145.008;2023-08-17T15:34:30;20;17;
54869;PMS5003;40756;-37.950;145.008;2023-08-17T15:37:00;19;19;
54869;PMS5003;40756;-37.950;145.008;2023-08-17T15:39:29;20;17;
54869;PMS5003;40756;-37.950;145.008;2023-08-17T15:41:59;19;18;
54869;PMS5003;40756;-37.950;145.008;2023-08-17T15:44:29;21;19;
54869;PMS5003;40756;-37.950;145.008;2023-08-17T15:46:59;15;14;
54869;PMS5003;40756;-37.950;145.008;2023-08-17T15:49:28;16;15;
54869;PMS5003;40756;-37.950;145.008;2023-08-17T15:51:58;17;16;
54869;PMS5003;40756;-37.950;145.008;2023-08-17T15:54:28;16;14;
54869;PMS5003;40756;-37.950;145.008;2023-08-17T15:56:57;19;17;
54869;PMS5003;40756;-37.950;145.008;2023-08-17T15:59:27;16;16;
54869;PMS5003;40756;-37.950;145.008;2023-08-17T16:01:56;16;14;
54869;PMS5003;40756;-37.950;145.008;2023-08-17T16:04:26;14;14;
54869;PMS5003;40756;-37.950;145.008;2023-08-17T16:06:56;14;13;